sensor_id;sensor_type;location;lat;lon;timestamp;P1;durP1;ratioP1;P2;durP2;ratioP2
6376;SDS011;3221;48.858;10.128;2023-07-20T00:00:19;5.93;;;3.77;;
6376;SDS011;3221;48.858;10.128;2023-07-20T00:02:49;4.67;;;3.10;;
6376;SDS011;3221;48.858;10.128;2023-07-20T00:05:18;3.90;;;3.03;;
6376;SDS011;3221;48.858;10.128;2023-07-20T00:07:47;5.63;;;2.47;;
6376;SDS011;3221;48.858;10.128;2023-07-20T00:10:18;4.77;;;2.50;;
6376;SDS011;3221;48.858;10.128;2023-07-20T00:12:45;2.50;;;2.30;;
6376;SDS011;3221;48.858;10.128;2023-07-20T00:15:14;4.40;;;3.23;;
6376;SDS011;3221;48.858;10.128;2023-07-20T00:17:41;4.23;;;2.97;;
6376;SDS011;3221;48.858;10.128;2023-07-20T00:20:08;4.67;;;3.27;;
6376;SDS011;3221;48.858;10.128;2023-07-20T00:22:36;7.23;;;3.20;;
6376;SDS011;3221;48.858;10.128;2023-07-20T00:25:02;5.17;;;3.10;;
6376;SDS011;3221;48.858;10.128;2023-07-20T00:27:30;5.07;;;3.47;;
6376;SDS011;3221;48.858;10.128;2023-07-20T00:29:57;4.60;;;3.90;;
6376;SDS011;3221;48.858;10.128;2023-07-20T00:32:24;5.70;;;3.50;;
6376;SDS011;3221;48.858;10.128;2023-07-20T00:34:52;4.43;;;3.27;;
6376;SDS011;3221;48.858;10.128;2023-07-20T00:37:21;4.40;;;3.77;;
6376;SDS011;3221;48.858;10.128;2023-07-20T00:39:48;5.47;;;3.90;;
6376;SDS011;3221;48.858;10.128;2023-07-20T00:42:15;5.47;;;3.90;;
6376;SDS011;3221;48.858;10.128;2023-07-20T00:44:44;7.00;;;4.80;;
6376;SDS011;3221;48.858;10.128;2023-07-20T00:47:11;6.50;;;5.33;;
6376;SDS011;3221;48.858;10.128;2023-07-20T00:49:39;6.70;;;5.80;;
6376;SDS011;3221;48.858;10.128;2023-07-20T00:52:06;5.67;;;4.97;;
6376;SDS011;3221;48.858;10.128;2023-07-20T00:54:34;6.40;;;5.10;;
6376;SDS011;3221;48.858;10.128;2023-07-20T00:57:01;7.97;;;5.80;;
6376;SDS011;3221;48.858;10.128;2023-07-20T00:59:29;6.73;;;5.27;;
6376;SDS011;3221;48.858;10.128;2023-07-20T01:01:57;8.93;;;4.73;;
6376;SDS011;3221;48.858;10.128;2023-07-20T01:04:25;4.70;;;3.93;;
6376;SDS011;3221;48.858;10.128;2023-07-20T01:06:58;7.47;;;4.53;;
6376;SDS011;3221;48.858;10.128;2023-07-20T01:12:05;4.63;;;3.90;;
6376;SDS011;3221;48.858;10.128;2023-07-20T01:14:40;5.07;;;3.37;;
6376;SDS011;3221;48.858;10.128;2023-07-20T01:17:09;4.07;;;3.20;;
6376;SDS011;3221;48.858;10.128;2023-07-20T01:19:36;4.50;;;2.57;;
6376;SDS011;3221;48.858;10.128;2023-07-20T01:22:05;6.17;;;2.17;;
6376;SDS011;3221;48.858;10.128;2023-07-20T01:33:19;3.53;;;2.63;;
6376;SDS011;3221;48.858;10.128;2023-07-20T01:35:50;3.13;;;2.60;;
6376;SDS011;3221;48.858;10.128;2023-07-20T01:38:27;4.93;;;2.43;;
6376;SDS011;3221;48.858;10.128;2023-07-20T01:40:55;2.90;;;2.33;;
6376;SDS011;3221;48.858;10.128;2023-07-20T01:43:24;3.97;;;2.27;;
6376;SDS011;3221;48.858;10.128;2023-07-20T01:45:51;4.67;;;2.50;;
6376;SDS011;3221;48.858;10.128;2023-07-20T01:48:18;3.70;;;2.27;;
6376;SDS011;3221;48.858;10.128;2023-07-20T01:50:45;3.93;;;2.57;;
6376;SDS011;3221;48.858;10.128;2023-07-20T01:53:12;2.70;;;2.13;;
6376;SDS011;3221;48.858;10.128;2023-07-20T01:55:40;4.43;;;3.53;;
6376;SDS011;3221;48.858;10.128;2023-07-20T01:58:07;4.53;;;3.80;;
6376;SDS011;3221;48.858;10.128;2023-07-20T02:00:34;4.37;;;2.90;;
6376;SDS011;3221;48.858;10.128;2023-07-20T02:03:03;2.40;;;2.20;;
6376;SDS011;3221;48.858;10.128;2023-07-20T02:05:30;4.00;;;2.47;;
6376;SDS011;3221;48.858;10.128;2023-07-20T02:07:58;3.30;;;2.50;;
6376;SDS011;3221;48.858;10.128;2023-07-20T02:10:25;3.50;;;2.40;;
6376;SDS011;3221;48.858;10.128;2023-07-20T02:12:52;4.30;;;2.67;;
6376;SDS011;3221;48.858;10.128;2023-07-20T02:15:19;5.67;;;3.13;;
6376;SDS011;3221;48.858;10.128;2023-07-20T02:17:46;3.40;;;2.97;;
6376;SDS011;3221;48.858;10.128;2023-07-20T02:20:14;4.87;;;3.07;;
6376;SDS011;3221;48.858;10.128;2023-07-20T02:22:41;4.23;;;3.07;;
6376;SDS011;3221;48.858;10.128;2023-07-20T02:25:08;3.77;;;2.83;;
6376;SDS011;3221;48.858;10.128;2023-07-20T02:27:36;5.40;;;2.77;;
6376;SDS011;3221;48.858;10.128;2023-07-20T02:30:05;4.20;;;3.20;;
6376;SDS011;3221;48.858;10.128;2023-07-20T02:32:33;3.50;;;2.70;;
6376;SDS011;3221;48.858;10.128;2023-07-20T02:35:01;6.23;;;3.30;;
6376;SDS011;3221;48.858;10.128;2023-07-20T02:37:30;3.43;;;2.97;;
6376;SDS011;3221;48.858;10.128;2023-07-20T02:39:58;3.97;;;3.57;;
6376;SDS011;3221;48.858;10.128;2023-07-20T02:42:26;3.80;;;3.27;;
6376;SDS011;3221;48.858;10.128;2023-07-20T02:44:54;4.87;;;3.60;;
6376;SDS011;3221;48.858;10.128;2023-07-20T02:47:21;6.23;;;4.83;;
6376;SDS011;3221;48.858;10.128;2023-07-20T02:49:48;6.67;;;4.53;;
6376;SDS011;3221;48.858;10.128;2023-07-20T02:52:15;6.57;;;4.43;;
6376;SDS011;3221;48.858;10.128;2023-07-20T02:54:45;5.90;;;3.70;;
6376;SDS011;3221;48.858;10.128;2023-07-20T02:57:13;4.43;;;3.10;;
6376;SDS011;3221;48.858;10.128;2023-07-20T02:59:42;3.27;;;2.97;;
6376;SDS011;3221;48.858;10.128;2023-07-20T03:02:09;5.67;;;3.37;;
6376;SDS011;3221;48.858;10.128;2023-07-20T03:04:36;4.47;;;2.97;;
6376;SDS011;3221;48.858;10.128;2023-07-20T03:07:04;9.23;;;3.10;;
6376;SDS011;3221;48.858;10.128;2023-07-20T03:09:32;3.70;;;2.50;;
6376;SDS011;3221;48.858;10.128;2023-07-20T03:11:59;3.43;;;2.83;;
6376;SDS011;3221;48.858;10.128;2023-07-20T03:14:28;4.60;;;3.10;;
6376;SDS011;3221;48.858;10.128;2023-07-20T03:16:55;4.33;;;3.07;;
6376;SDS011;3221;48.858;10.128;2023-07-20T03:19:22;4.90;;;3.10;;
6376;SDS011;3221;48.858;10.128;2023-07-20T03:21:49;5.47;;;3.13;;
6376;SDS011;3221;48.858;10.128;2023-07-20T03:24:17;3.87;;;3.10;;
6376;SDS011;3221;48.858;10.128;2023-07-20T03:26:46;3.67;;;2.97;;
6376;SDS011;3221;48.858;10.128;2023-07-20T03:29:13;4.67;;;2.80;;
6376;SDS011;3221;48.858;10.128;2023-07-20T03:31:40;4.57;;;3.17;;
6376;SDS011;3221;48.858;10.128;2023-07-20T03:34:07;5.93;;;3.50;;
6376;SDS011;3221;48.858;10.128;2023-07-20T03:36:35;3.73;;;3.13;;
6376;SDS011;3221;48.858;10.128;2023-07-20T03:39:02;3.23;;;2.80;;
6376;SDS011;3221;48.858;10.128;2023-07-20T03:41:30;4.00;;;2.90;;
6376;SDS011;3221;48.858;10.128;2023-07-20T03:43:57;4.33;;;3.50;;
6376;SDS011;3221;48.858;10.128;2023-07-20T03:46:25;5.33;;;3.20;;
6376;SDS011;3221;48.858;10.128;2023-07-20T03:48:52;7.87;;;3.50;;
6376;SDS011;3221;48.858;10.128;2023-07-20T03:51:19;4.43;;;3.37;;
6376;SDS011;3221;48.858;10.128;2023-07-20T03:53:46;5.27;;;2.80;;
6376;SDS011;3221;48.858;10.128;2023-07-20T03:56:14;3.23;;;2.80;;
6376;SDS011;3221;48.858;10.128;2023-07-20T03:58:40;4.43;;;2.60;;
6376;SDS011;3221;48.858;10.128;2023-07-20T04:01:09;4.03;;;2.97;;
6376;SDS011;3221;48.858;10.128;2023-07-20T04:03:36;4.33;;;2.80;;
6376;SDS011;3221;48.858;10.128;2023-07-20T04:06:03;5.00;;;2.97;;
6376;SDS011;3221;48.858;10.128;2023-07-20T04:08:30;4.43;;;3.10;;
6376;SDS011;3221;48.858;10.128;2023-07-20T04:10:57;4.17;;;3.07;;
6376;SDS011;3221;48.858;10.128;2023-07-20T04:13:24;3.37;;;3.07;;
6376;SDS011;3221;48.858;10.128;2023-07-20T04:15:51;3.53;;;3.07;;
6376;SDS011;3221;48.858;10.128;2023-07-20T04:18:18;4.17;;;3.10;;
6376;SDS011;3221;48.858;10.128;2023-07-20T04:20:45;3.60;;;2.57;;
6376;SDS011;3221;48.858;10.128;2023-07-20T04:23:13;3.53;;;3.00;;
6376;SDS011;3221;48.858;10.128;2023-07-20T04:25:40;6.10;;;3.00;;
6376;SDS011;3221;48.858;10.128;2023-07-20T04:28:11;3.77;;;3.30;;
6376;SDS011;3221;48.858;10.128;2023-07-20T04:30:43;4.40;;;2.93;;
6376;SDS011;3221;48.858;10.128;2023-07-20T04:33:11;5.10;;;3.00;;
6376;SDS011;3221;48.858;10.128;2023-07-20T04:35:47;3.07;;;2.60;;
6376;SDS011;3221;48.858;10.128;2023-07-20T04:38:22;2.93;;;2.40;;
6376;SDS011;3221;48.858;10.128;2023-07-20T04:40:59;3.50;;;2.73;;
6376;SDS011;3221;48.858;10.128;2023-07-20T04:43:31;5.30;;;3.90;;
6376;SDS011;3221;48.858;10.128;2023-07-20T04:45:59;5.23;;;3.77;;
6376;SDS011;3221;48.858;10.128;2023-07-20T04:48:31;6.87;;;4.63;;
6376;SDS011;3221;48.858;10.128;2023-07-20T04:50:58;6.40;;;4.57;;
6376;SDS011;3221;48.858;10.128;2023-07-20T04:53:26;4.73;;;4.10;;
6376;SDS011;3221;48.858;10.128;2023-07-20T04:55:54;7.87;;;4.50;;
6376;SDS011;3221;48.858;10.128;2023-07-20T04:58:23;6.80;;;4.23;;
6376;SDS011;3221;48.858;10.128;2023-07-20T05:00:52;6.13;;;4.10;;
6376;SDS011;3221;48.858;10.128;2023-07-20T05:03:20;6.80;;;4.80;;
6376;SDS011;3221;48.858;10.128;2023-07-20T05:05:47;7.07;;;4.83;;
6376;SDS011;3221;48.858;10.128;2023-07-20T05:08:16;7.57;;;4.80;;
6376;SDS011;3221;48.858;10.128;2023-07-20T05:10:43;6.27;;;5.00;;
6376;SDS011;3221;48.858;10.128;2023-07-20T05:13:11;7.27;;;5.27;;
6376;SDS011;3221;48.858;10.128;2023-07-20T05:15:38;7.67;;;5.53;;
6376;SDS011;3221;48.858;10.128;2023-07-20T05:18:11;7.17;;;5.13;;
6376;SDS011;3221;48.858;10.128;2023-07-20T05:20:40;8.20;;;5.47;;
6376;SDS011;3221;48.858;10.128;2023-07-20T05:23:08;7.03;;;5.17;;
6376;SDS011;3221;48.858;10.128;2023-07-20T05:25:36;7.43;;;5.50;;
6376;SDS011;3221;48.858;10.128;2023-07-20T05:28:04;8.93;;;6.50;;
6376;SDS011;3221;48.858;10.128;2023-07-20T05:30:31;6.80;;;5.33;;
6376;SDS011;3221;48.858;10.128;2023-07-20T05:33:00;7.07;;;4.93;;
6376;SDS011;3221;48.858;10.128;2023-07-20T05:35:27;7.13;;;5.57;;
6376;SDS011;3221;48.858;10.128;2023-07-20T05:37:54;6.97;;;4.77;;
6376;SDS011;3221;48.858;10.128;2023-07-20T05:40:21;8.13;;;4.80;;
6376;SDS011;3221;48.858;10.128;2023-07-20T05:42:48;8.00;;;4.37;;
6376;SDS011;3221;48.858;10.128;2023-07-20T05:45:19;4.77;;;4.07;;
6376;SDS011;3221;48.858;10.128;2023-07-20T05:47:46;4.43;;;3.37;;
6376;SDS011;3221;48.858;10.128;2023-07-20T05:50:14;4.73;;;3.43;;
6376;SDS011;3221;48.858;10.128;2023-07-20T05:52:41;6.20;;;3.30;;
6376;SDS011;3221;48.858;10.128;2023-07-20T05:55:08;4.70;;;3.20;;
6376;SDS011;3221;48.858;10.128;2023-07-20T05:57:35;3.23;;;2.87;;
6376;SDS011;3221;48.858;10.128;2023-07-20T06:00:02;3.40;;;2.63;;
6376;SDS011;3221;48.858;10.128;2023-07-20T06:02:37;4.37;;;2.90;;
6376;SDS011;3221;48.858;10.128;2023-07-20T06:05:07;4.00;;;2.77;;
6376;SDS011;3221;48.858;10.128;2023-07-20T06:07:40;3.03;;;2.73;;
6376;SDS011;3221;48.858;10.128;2023-07-20T06:10:09;4.33;;;3.30;;
6376;SDS011;3221;48.858;10.128;2023-07-20T06:12:37;6.30;;;3.20;;
6376;SDS011;3221;48.858;10.128;2023-07-20T06:15:04;5.00;;;3.47;;
6376;SDS011;3221;48.858;10.128;2023-07-20T06:17:32;4.90;;;3.20;;
6376;SDS011;3221;48.858;10.128;2023-07-20T06:19:59;4.97;;;3.40;;
6376;SDS011;3221;48.858;10.128;2023-07-20T06:22:26;3.97;;;3.03;;
6376;SDS011;3221;48.858;10.128;2023-07-20T06:24:53;4.67;;;2.60;;
6376;SDS011;3221;48.858;10.128;2023-07-20T06:27:21;6.50;;;3.30;;
6376;SDS011;3221;48.858;10.128;2023-07-20T06:29:48;4.53;;;2.90;;
6376;SDS011;3221;48.858;10.128;2023-07-20T06:32:16;5.30;;;3.40;;
6376;SDS011;3221;48.858;10.128;2023-07-20T06:34:43;3.03;;;2.73;;
6376;SDS011;3221;48.858;10.128;2023-07-20T06:37:10;5.70;;;3.27;;
6376;SDS011;3221;48.858;10.128;2023-07-20T06:39:37;4.13;;;2.70;;
6376;SDS011;3221;48.858;10.128;2023-07-20T06:42:07;4.47;;;2.53;;
6376;SDS011;3221;48.858;10.128;2023-07-20T06:44:34;8.67;;;2.70;;
6376;SDS011;3221;48.858;10.128;2023-07-20T06:47:01;3.80;;;2.60;;
6376;SDS011;3221;48.858;10.128;2023-07-20T06:49:28;4.63;;;2.33;;
6376;SDS011;3221;48.858;10.128;2023-07-20T06:51:56;3.50;;;2.30;;
6376;SDS011;3221;48.858;10.128;2023-07-20T06:54:23;6.27;;;2.77;;
6376;SDS011;3221;48.858;10.128;2023-07-20T06:56:50;3.37;;;2.50;;
6376;SDS011;3221;48.858;10.128;2023-07-20T06:59:22;4.47;;;2.47;;
6376;SDS011;3221;48.858;10.128;2023-07-20T07:01:51;4.13;;;2.23;;
6376;SDS011;3221;48.858;10.128;2023-07-20T07:04:19;4.17;;;3.00;;
6376;SDS011;3221;48.858;10.128;2023-07-20T07:06:46;3.40;;;3.10;;
6376;SDS011;3221;48.858;10.128;2023-07-20T07:09:13;4.73;;;3.00;;
6376;SDS011;3221;48.858;10.128;2023-07-20T07:11:40;4.50;;;3.13;;
6376;SDS011;3221;48.858;10.128;2023-07-20T07:14:07;3.13;;;2.30;;
6376;SDS011;3221;48.858;10.128;2023-07-20T07:16:35;3.27;;;2.30;;
6376;SDS011;3221;48.858;10.128;2023-07-20T07:19:05;3.07;;;2.17;;
6376;SDS011;3221;48.858;10.128;2023-07-20T07:21:34;2.40;;;2.03;;
6376;SDS011;3221;48.858;10.128;2023-07-20T07:24:01;2.57;;;2.20;;
6376;SDS011;3221;48.858;10.128;2023-07-20T07:26:30;2.40;;;2.10;;
6376;SDS011;3221;48.858;10.128;2023-07-20T07:28:57;4.80;;;2.73;;
6376;SDS011;3221;48.858;10.128;2023-07-20T07:31:24;8.47;;;2.37;;
6376;SDS011;3221;48.858;10.128;2023-07-20T07:33:52;2.47;;;2.10;;
6376;SDS011;3221;48.858;10.128;2023-07-20T07:36:20;4.13;;;2.10;;
6376;SDS011;3221;48.858;10.128;2023-07-20T07:38:48;4.10;;;2.40;;
6376;SDS011;3221;48.858;10.128;2023-07-20T07:41:35;4.37;;;3.70;;
6376;SDS011;3221;48.858;10.128;2023-07-20T07:44:04;5.07;;;3.90;;
6376;SDS011;3221;48.858;10.128;2023-07-20T07:46:31;3.47;;;2.73;;
6376;SDS011;3221;48.858;10.128;2023-07-20T07:48:59;4.87;;;2.40;;
6376;SDS011;3221;48.858;10.128;2023-07-20T07:51:26;4.80;;;2.33;;
6376;SDS011;3221;48.858;10.128;2023-07-20T07:53:55;3.70;;;2.23;;
6376;SDS011;3221;48.858;10.128;2023-07-20T07:56:23;4.57;;;2.30;;
6376;SDS011;3221;48.858;10.128;2023-07-20T07:58:51;4.67;;;2.53;;
6376;SDS011;3221;48.858;10.128;2023-07-20T08:01:18;5.63;;;2.50;;
6376;SDS011;3221;48.858;10.128;2023-07-20T08:03:47;3.00;;;2.30;;
6376;SDS011;3221;48.858;10.128;2023-07-20T08:06:15;5.50;;;2.40;;
6376;SDS011;3221;48.858;10.128;2023-07-20T08:08:42;3.60;;;2.50;;
6376;SDS011;3221;48.858;10.128;2023-07-20T08:11:10;4.97;;;2.40;;
6376;SDS011;3221;48.858;10.128;2023-07-20T08:13:40;4.43;;;2.40;;
6376;SDS011;3221;48.858;10.128;2023-07-20T08:16:07;5.07;;;2.03;;
6376;SDS011;3221;48.858;10.128;2023-07-20T08:18:34;2.70;;;2.40;;
6376;SDS011;3221;48.858;10.128;2023-07-20T08:21:01;2.33;;;2.13;;
6376;SDS011;3221;48.858;10.128;2023-07-20T08:23:30;3.50;;;2.53;;
6376;SDS011;3221;48.858;10.128;2023-07-20T08:25:57;2.60;;;2.27;;
6376;SDS011;3221;48.858;10.128;2023-07-20T08:28:25;3.23;;;2.30;;
6376;SDS011;3221;48.858;10.128;2023-07-20T08:30:53;3.10;;;2.37;;
6376;SDS011;3221;48.858;10.128;2023-07-20T08:33:20;4.30;;;2.33;;
6376;SDS011;3221;48.858;10.128;2023-07-20T08:35:46;3.60;;;2.07;;
6376;SDS011;3221;48.858;10.128;2023-07-20T08:38:14;2.93;;;2.17;;
6376;SDS011;3221;48.858;10.128;2023-07-20T08:40:44;2.50;;;2.27;;
6376;SDS011;3221;48.858;10.128;2023-07-20T08:43:13;2.57;;;2.37;;
6376;SDS011;3221;48.858;10.128;2023-07-20T08:45:43;2.90;;;2.30;;
6376;SDS011;3221;48.858;10.128;2023-07-20T08:48:12;2.57;;;2.37;;
6376;SDS011;3221;48.858;10.128;2023-07-20T08:50:40;4.97;;;2.50;;
6376;SDS011;3221;48.858;10.128;2023-07-20T08:53:09;3.00;;;1.90;;
6376;SDS011;3221;48.858;10.128;2023-07-20T08:55:40;3.03;;;2.20;;
6376;SDS011;3221;48.858;10.128;2023-07-20T08:58:12;4.37;;;2.27;;
6376;SDS011;3221;48.858;10.128;2023-07-20T09:00:39;2.40;;;2.17;;
6376;SDS011;3221;48.858;10.128;2023-07-20T09:03:11;3.30;;;2.10;;
6376;SDS011;3221;48.858;10.128;2023-07-20T09:05:40;2.93;;;2.10;;
6376;SDS011;3221;48.858;10.128;2023-07-20T09:08:07;3.17;;;2.40;;
6376;SDS011;3221;48.858;10.128;2023-07-20T09:10:34;3.43;;;2.40;;
6376;SDS011;3221;48.858;10.128;2023-07-20T09:13:02;3.53;;;2.10;;
6376;SDS011;3221;48.858;10.128;2023-07-20T09:15:30;3.20;;;2.00;;
6376;SDS011;3221;48.858;10.128;2023-07-20T09:18:00;2.43;;;2.10;;
6376;SDS011;3221;48.858;10.128;2023-07-20T09:20:31;3.17;;;2.27;;
6376;SDS011;3221;48.858;10.128;2023-07-20T09:23:04;3.40;;;2.40;;
6376;SDS011;3221;48.858;10.128;2023-07-20T09:25:32;2.40;;;2.20;;
6376;SDS011;3221;48.858;10.128;2023-07-20T09:28:02;4.07;;;2.70;;
6376;SDS011;3221;48.858;10.128;2023-07-20T09:30:31;3.27;;;2.30;;
6376;SDS011;3221;48.858;10.128;2023-07-20T09:32:59;3.07;;;2.50;;
6376;SDS011;3221;48.858;10.128;2023-07-20T09:35:27;4.73;;;2.43;;
6376;SDS011;3221;48.858;10.128;2023-07-20T09:38:08;3.67;;;2.57;;
6376;SDS011;3221;48.858;10.128;2023-07-20T09:40:38;2.67;;;2.40;;
6376;SDS011;3221;48.858;10.128;2023-07-20T09:43:11;3.57;;;2.33;;
6376;SDS011;3221;48.858;10.128;2023-07-20T09:45:41;3.80;;;2.53;;
6376;SDS011;3221;48.858;10.128;2023-07-20T09:48:13;7.50;;;2.53;;
6376;SDS011;3221;48.858;10.128;2023-07-20T09:50:48;2.70;;;2.50;;
6376;SDS011;3221;48.858;10.128;2023-07-20T09:53:16;3.40;;;2.30;;
6376;SDS011;3221;48.858;10.128;2023-07-20T09:55:45;2.17;;;1.97;;
6376;SDS011;3221;48.858;10.128;2023-07-20T09:58:14;3.47;;;2.20;;
6376;SDS011;3221;48.858;10.128;2023-07-20T10:00:44;2.37;;;2.13;;
6376;SDS011;3221;48.858;10.128;2023-07-20T10:03:20;2.70;;;2.10;;
6376;SDS011;3221;48.858;10.128;2023-07-20T10:05:54;3.93;;;2.50;;
6376;SDS011;3221;48.858;10.128;2023-07-20T10:08:26;5.33;;;2.53;;
6376;SDS011;3221;48.858;10.128;2023-07-20T10:10:59;3.93;;;2.40;;
6376;SDS011;3221;48.858;10.128;2023-07-20T10:13:29;3.27;;;2.17;;
6376;SDS011;3221;48.858;10.128;2023-07-20T10:16:07;3.00;;;2.43;;
6376;SDS011;3221;48.858;10.128;2023-07-20T10:18:51;2.87;;;2.27;;
6376;SDS011;3221;48.858;10.128;2023-07-20T10:21:21;2.33;;;2.17;;
6376;SDS011;3221;48.858;10.128;2023-07-20T10:23:54;2.77;;;2.33;;
6376;SDS011;3221;48.858;10.128;2023-07-20T10:26:25;2.13;;;1.90;;
6376;SDS011;3221;48.858;10.128;2023-07-20T10:28:53;4.70;;;2.53;;
6376;SDS011;3221;48.858;10.128;2023-07-20T10:31:20;3.10;;;2.47;;
6376;SDS011;3221;48.858;10.128;2023-07-20T10:33:49;3.40;;;2.50;;
6376;SDS011;3221;48.858;10.128;2023-07-20T10:36:20;3.20;;;2.37;;
6376;SDS011;3221;48.858;10.128;2023-07-20T10:38:57;4.57;;;2.47;;
6376;SDS011;3221;48.858;10.128;2023-07-20T10:41:29;4.73;;;2.50;;
6376;SDS011;3221;48.858;10.128;2023-07-20T10:44:04;3.60;;;2.50;;
6376;SDS011;3221;48.858;10.128;2023-07-20T10:46:34;3.17;;;2.60;;
6376;SDS011;3221;48.858;10.128;2023-07-20T10:49:06;3.17;;;2.30;;
6376;SDS011;3221;48.858;10.128;2023-07-20T10:51:42;3.87;;;2.70;;
6376;SDS011;3221;48.858;10.128;2023-07-20T10:56:48;5.47;;;2.83;;
6376;SDS011;3221;48.858;10.128;2023-07-20T10:59:17;3.67;;;2.50;;
6376;SDS011;3221;48.858;10.128;2023-07-20T11:01:48;5.87;;;2.47;;
6376;SDS011;3221;48.858;10.128;2023-07-20T11:04:17;4.03;;;2.57;;
6376;SDS011;3221;48.858;10.128;2023-07-20T11:06:46;3.37;;;2.33;;
6376;SDS011;3221;48.858;10.128;2023-07-20T11:09:22;3.17;;;2.40;;
6376;SDS011;3221;48.858;10.128;2023-07-20T11:12:08;3.10;;;2.10;;
6376;SDS011;3221;48.858;10.128;2023-07-20T11:14:40;5.33;;;2.33;;
6376;SDS011;3221;48.858;10.128;2023-07-20T11:17:29;9.80;;;2.40;;
6376;SDS011;3221;48.858;10.128;2023-07-20T11:19:58;3.03;;;2.23;;
6376;SDS011;3221;48.858;10.128;2023-07-20T11:22:33;4.43;;;2.57;;
6376;SDS011;3221;48.858;10.128;2023-07-20T11:25:00;2.50;;;2.10;;
6376;SDS011;3221;48.858;10.128;2023-07-20T11:27:27;3.53;;;2.40;;
6376;SDS011;3221;48.858;10.128;2023-07-20T11:29:55;3.10;;;2.47;;
6376;SDS011;3221;48.858;10.128;2023-07-20T11:32:23;3.73;;;2.23;;
6376;SDS011;3221;48.858;10.128;2023-07-20T11:34:51;3.30;;;2.30;;
6376;SDS011;3221;48.858;10.128;2023-07-20T11:37:18;2.50;;;2.13;;
6376;SDS011;3221;48.858;10.128;2023-07-20T11:39:46;3.70;;;2.10;;
6376;SDS011;3221;48.858;10.128;2023-07-20T11:42:14;2.50;;;2.30;;
6376;SDS011;3221;48.858;10.128;2023-07-20T11:44:44;5.67;;;2.77;;
6376;SDS011;3221;48.858;10.128;2023-07-20T11:47:11;4.07;;;2.37;;
6376;SDS011;3221;48.858;10.128;2023-07-20T11:49:39;3.93;;;2.80;;
6376;SDS011;3221;48.858;10.128;2023-07-20T11:52:08;2.80;;;2.10;;
6376;SDS011;3221;48.858;10.128;2023-07-20T11:54:37;3.47;;;2.10;;
6376;SDS011;3221;48.858;10.128;2023-07-20T11:57:06;3.40;;;2.30;;
6376;SDS011;3221;48.858;10.128;2023-07-20T11:59:52;3.60;;;2.37;;
6376;SDS011;3221;48.858;10.128;2023-07-20T12:02:26;3.10;;;2.13;;
6376;SDS011;3221;48.858;10.128;2023-07-20T12:04:55;3.43;;;2.53;;
6376;SDS011;3221;48.858;10.128;2023-07-20T12:07:25;3.93;;;1.90;;
6376;SDS011;3221;48.858;10.128;2023-07-20T12:10:10;2.67;;;2.03;;
6376;SDS011;3221;48.858;10.128;2023-07-20T12:12:39;4.03;;;2.47;;
6376;SDS011;3221;48.858;10.128;2023-07-20T12:15:21;4.10;;;2.10;;
6376;SDS011;3221;48.858;10.128;2023-07-20T12:17:50;9.23;;;2.53;;
6376;SDS011;3221;48.858;10.128;2023-07-20T12:20:28;6.68;;;2.28;;
6376;SDS011;3221;48.858;10.128;2023-07-20T12:23:03;2.45;;;2.00;;
6376;SDS011;3221;48.858;10.128;2023-07-20T12:25:38;3.50;;;2.10;;
6376;SDS011;3221;48.858;10.128;2023-07-20T12:28:13;2.55;;;2.20;;
6376;SDS011;3221;48.858;10.128;2023-07-20T12:30:42;3.45;;;2.15;;
6376;SDS011;3221;48.858;10.128;2023-07-20T12:33:14;3.08;;;2.30;;
6376;SDS011;3221;48.858;10.128;2023-07-20T12:35:44;3.60;;;2.17;;
6376;SDS011;3221;48.858;10.128;2023-07-20T12:38:12;2.25;;;1.98;;
6376;SDS011;3221;48.858;10.128;2023-07-20T12:40:40;2.47;;;2.00;;
6376;SDS011;3221;48.858;10.128;2023-07-20T12:43:08;4.85;;;1.70;;
6376;SDS011;3221;48.858;10.128;2023-07-20T12:45:36;4.22;;;2.42;;
6376;SDS011;3221;48.858;10.128;2023-07-20T12:48:05;4.70;;;1.98;;
6376;SDS011;3221;48.858;10.128;2023-07-20T12:50:32;4.05;;;2.17;;
6376;SDS011;3221;48.858;10.128;2023-07-20T12:52:58;3.05;;;2.08;;
6376;SDS011;3221;48.858;10.128;2023-07-20T12:55:27;4.63;;;2.47;;
6376;SDS011;3221;48.858;10.128;2023-07-20T12:57:54;3.45;;;1.92;;
6376;SDS011;3221;48.858;10.128;2023-07-20T13:00:24;2.00;;;1.80;;
6376;SDS011;3221;48.858;10.128;2023-07-20T13:02:51;2.90;;;2.00;;
6376;SDS011;3221;48.858;10.128;2023-07-20T13:05:23;3.20;;;1.95;;
6376;SDS011;3221;48.858;10.128;2023-07-20T13:08:10;2.22;;;1.75;;
6376;SDS011;3221;48.858;10.128;2023-07-20T13:10:41;3.78;;;2.30;;
6376;SDS011;3221;48.858;10.128;2023-07-20T13:13:08;2.00;;;1.80;;
6376;SDS011;3221;48.858;10.128;2023-07-20T13:15:42;2.67;;;1.92;;
6376;SDS011;3221;48.858;10.128;2023-07-20T13:18:10;2.15;;;1.52;;
6376;SDS011;3221;48.858;10.128;2023-07-20T13:20:37;1.63;;;1.50;;
6376;SDS011;3221;48.858;10.128;2023-07-20T13:23:04;1.83;;;1.65;;
6376;SDS011;3221;48.858;10.128;2023-07-20T13:25:31;1.92;;;1.80;;
6376;SDS011;3221;48.858;10.128;2023-07-20T13:27:58;2.05;;;1.80;;
6376;SDS011;3221;48.858;10.128;2023-07-20T13:30:25;1.52;;;1.40;;
6376;SDS011;3221;48.858;10.128;2023-07-20T13:32:53;1.90;;;1.70;;
6376;SDS011;3221;48.858;10.128;2023-07-20T13:35:21;2.15;;;1.70;;
6376;SDS011;3221;48.858;10.128;2023-07-20T13:37:48;1.70;;;1.60;;
6376;SDS011;3221;48.858;10.128;2023-07-20T13:40:16;2.70;;;1.92;;
6376;SDS011;3221;48.858;10.128;2023-07-20T13:42:45;3.13;;;1.85;;
6376;SDS011;3221;48.858;10.128;2023-07-20T13:45:12;5.20;;;2.30;;
6376;SDS011;3221;48.858;10.128;2023-07-20T13:47:41;2.70;;;1.92;;
6376;SDS011;3221;48.858;10.128;2023-07-20T13:50:12;2.13;;;1.98;;
6376;SDS011;3221;48.858;10.128;2023-07-20T13:52:52;5.00;;;1.90;;
6376;SDS011;3221;48.858;10.128;2023-07-20T13:55:40;2.75;;;1.90;;
6376;SDS011;3221;48.858;10.128;2023-07-20T13:58:10;3.15;;;1.95;;
6376;SDS011;3221;48.858;10.128;2023-07-20T14:00:39;2.20;;;1.77;;
6376;SDS011;3221;48.858;10.128;2023-07-20T14:03:07;2.08;;;1.75;;
6376;SDS011;3221;48.858;10.128;2023-07-20T14:05:37;1.60;;;1.50;;
6376;SDS011;3221;48.858;10.128;2023-07-20T14:08:07;2.95;;;1.73;;
6376;SDS011;3221;48.858;10.128;2023-07-20T14:10:35;1.92;;;1.70;;
6376;SDS011;3221;48.858;10.128;2023-07-20T14:13:22;1.77;;;1.60;;
6376;SDS011;3221;48.858;10.128;2023-07-20T14:16:10;2.65;;;1.70;;
6376;SDS011;3221;48.858;10.128;2023-07-20T14:18:37;6.03;;;1.98;;
6376;SDS011;3221;48.858;10.128;2023-07-20T14:21:04;2.05;;;1.77;;
6376;SDS011;3221;48.858;10.128;2023-07-20T14:23:35;2.90;;;1.80;;
6376;SDS011;3221;48.858;10.128;2023-07-20T14:26:02;2.08;;;1.50;;
6376;SDS011;3221;48.858;10.128;2023-07-20T14:28:36;3.03;;;1.75;;
6376;SDS011;3221;48.858;10.128;2023-07-20T14:31:04;4.00;;;1.70;;
6376;SDS011;3221;48.858;10.128;2023-07-20T14:33:31;1.95;;;1.77;;
6376;SDS011;3221;48.858;10.128;2023-07-20T14:35:59;1.75;;;1.60;;
6376;SDS011;3221;48.858;10.128;2023-07-20T14:38:30;3.88;;;1.80;;
6376;SDS011;3221;48.858;10.128;2023-07-20T14:40:58;2.78;;;1.60;;
6376;SDS011;3221;48.858;10.128;2023-07-20T14:43:27;5.13;;;1.90;;
6376;SDS011;3221;48.858;10.128;2023-07-20T14:45:54;2.58;;;1.77;;
6376;SDS011;3221;48.858;10.128;2023-07-20T14:48:21;3.50;;;2.20;;
6376;SDS011;3221;48.858;10.128;2023-07-20T14:50:48;5.10;;;4.10;;
6376;SDS011;3221;48.858;10.128;2023-07-20T14:53:16;3.63;;;2.92;;
6376;SDS011;3221;48.858;10.128;2023-07-20T14:55:45;3.63;;;2.20;;
6376;SDS011;3221;48.858;10.128;2023-07-20T14:58:12;2.22;;;1.80;;
6376;SDS011;3221;48.858;10.128;2023-07-20T15:00:40;1.80;;;1.70;;
6376;SDS011;3221;48.858;10.128;2023-07-20T15:03:07;2.30;;;1.85;;
6376;SDS011;3221;48.858;10.128;2023-07-20T15:05:36;4.00;;;1.63;;
6376;SDS011;3221;48.858;10.128;2023-07-20T15:08:04;1.80;;;1.63;;
6376;SDS011;3221;48.858;10.128;2023-07-20T15:10:33;5.72;;;1.92;;
6376;SDS011;3221;48.858;10.128;2023-07-20T15:13:02;3.08;;;1.63;;
6376;SDS011;3221;48.858;10.128;2023-07-20T15:15:30;3.90;;;1.70;;
6376;SDS011;3221;48.858;10.128;2023-07-20T15:17:57;4.05;;;1.70;;
6376;SDS011;3221;48.858;10.128;2023-07-20T15:20:25;3.60;;;1.77;;
6376;SDS011;3221;48.858;10.128;2023-07-20T15:22:52;1.92;;;1.75;;
6376;SDS011;3221;48.858;10.128;2023-07-20T15:25:20;2.60;;;1.75;;